• Join FlightAware (Why Join?)
  • Login
  • US Flag 
09:12AM EST


 

Airport Tracker/Info


-or-


 

Live Flight TrackerFlight Track Log ✈ SWA652 ✈ 31-Jul-2013 ✈ KPHX - KMDW

Flight Track Log - Related Links

Times and Time Zones

All times are in EDT time to prevent confusion due to time zone crossing. See the SWA652 flight status page for this flight to view local times or setup timezone preferences in your user account.

Time Position Orientation Groundspeed Altitude Reporting Facility
EDT Latitude Longitude Course Direction KTS MPH feet Rate Location/Type
02:13PM 33.4333 -112.0333 270° West 163 188 1,700  Level Phoenix TRACON
02:14PM 33.4333 -112.1167 270° West 240 276 3,300 1,800 Climbing Phoenix TRACON
02:15PM 33.4333 -112.1833 270° West 275 316 5,100 2,340 Climbing Phoenix TRACON
02:16PM 33.4969 -112.1947 352° North 285 328 7,500 2,580 Climbing Albuquerque Center
02:17PM 33.5261 -112.1075 68° East 294 338 10,400 2,340 Climbing Albuquerque Center
02:18PM 33.5469 -112.0003 77° East 338 389 12,400 2,400 Climbing Albuquerque Center
02:19PM 33.5747 -111.8600 77° East 363 418 15,400 2,580 Climbing Albuquerque Center
02:20PM 33.5992 -111.7369 77° East 380 437 17,800 2,220 Climbing Albuquerque Center
02:21PM 33.6239 -111.6086 77° East 397 457 20,000 2,040 Climbing Albuquerque Center
02:22PM 33.6486 -111.4742 78° East 413 475 22,000 1,860 Climbing Albuquerque Center
02:23PM 33.6750 -111.3350 77° East 429 494 23,900 1,860 Climbing Albuquerque Center
02:24PM 33.7233 -111.1686 71° East 446 513 25,900 1,680 Climbing Albuquerque Center
02:25PM 33.7736 -111.0283 67° East 457 526 27,400 1,380 Climbing Albuquerque Center
02:26PM 33.8239 -110.8844 67° East 465 535 28,800 1,320 Climbing Albuquerque Center
02:27PM 33.8761 -110.7381 67° East 473 544 30,200 1,440 Climbing Albuquerque Center
02:28PM 33.9278 -110.5908 67° East 478 550 31,800 1,440 Climbing Albuquerque Center
02:29PM 33.9797 -110.4439 67° East 479 551 33,200 1,380 Climbing Albuquerque Center
02:30PM 34.0350 -110.2844 67° East 481 554 34,700 840 Climbing Albuquerque Center
02:31PM 34.0853 -110.1392 67° East 475 547 35,000 120 Climbing Albuquerque Center
02:32PM 34.1381 -109.9900 67° East 480 552 35,000  Level Albuquerque Center
02:33PM 34.1967 -109.8150 68° East 473 544 35,000  Level Albuquerque Center
02:34PM 34.2478 -109.6683 67° East 472 543 35,000  Level Albuquerque Center
02:35PM 34.2972 -109.5236 67° East 469 540 35,000  Level Albuquerque Center
02:36PM 34.3461 -109.3764 68° East 471 542 35,000  Level Albuquerque Center
02:37PM 34.3958 -109.2294 68° East 472 543 35,000  Level Albuquerque Center
02:38PM 34.4439 -109.0806 69° East 473 544 35,000  Level Albuquerque Center
02:39PM 34.4839 -108.9283 72° East 474 545 35,000  Level Albuquerque Center
02:40PM 34.5347 -108.7467 71° East 474 545 35,000  Level Albuquerque Center
02:41PM 34.5758 -108.5936 72° East 476 548 35,000  Level Albuquerque Center
02:42PM 34.6167 -108.4444 72° East 475 547 35,000  Level Albuquerque Center
02:44PM 34.6586 -108.2936 71° East 472 543 35,000  Level Albuquerque Center
02:45PM 34.6997 -108.1411 72° East 474 545 35,000  Level Albuquerque Center
02:46PM 34.7375 -107.9878 73° East 474 545 35,000 120 Level Albuquerque Center
02:47PM 34.7783 -107.8347 72° East 475 547 35,300 900 Climbing Albuquerque Center
02:48PM 34.8281 -107.6525 72° East 474 545 36,900 780 Climbing Albuquerque Center
02:49PM 34.8689 -107.4939 73° East 474 545 37,000  Climbing Albuquerque Center
02:50PM 34.9128 -107.3292 72° East 474 545 37,000  Level Albuquerque Center
02:51PM 34.9533 -107.1761 72° East 476 548 37,000  Level Albuquerque Center
02:52PM 34.9919 -107.0233 73° East 474 545 37,000  Level Albuquerque Center
02:53PM 35.0339 -106.8597 73° East 472 543 37,000  Level Albuquerque Center
02:54PM 35.0758 -106.7272 69° East 475 547 37,000  Level Albuquerque Center
02:55PM 35.1433 -106.5600 64° Northeast 482 555 37,000  Level Albuquerque Center
02:56PM 35.1967 -106.4036 67° East 479 551 37,000  Level Albuquerque Center
02:57PM 35.2506 -106.2586 65° Northeast 475 547 37,000  Level Albuquerque Center
02:58PM 35.3042 -106.1133 66° East 472 543 37,000  Level Albuquerque Center
02:59PM 35.3569 -105.9672 66° East 475 547 37,000  Level Albuquerque Center
03:00PM 35.4194 -105.8253 62° Northeast 479 551 37,000  Level Albuquerque Center
03:01PM 35.4922 -105.6542 62° Northeast 478 550 37,000  Level Albuquerque Center
03:02PM 35.5558 -105.5044 62° Northeast 479 551 37,000  Level Albuquerque Center
03:03PM 35.6175 -105.3589 62° Northeast 477 549 37,000  Level Albuquerque Center
03:04PM 35.6778 -105.2131 63° Northeast 475 547 37,000  Level Albuquerque Center
03:05PM 35.7386 -105.0658 63° Northeast 475 547 37,000  Level Albuquerque Center
03:06PM 35.7997 -104.9178 63° Northeast 478 550 37,000  Level Albuquerque Center
03:07PM 35.8600 -104.7725 63° Northeast 473 544 37,000  Level Albuquerque Center
03:08PM 35.9219 -104.6214 63° Northeast 482 555 37,000  Level Albuquerque Center
03:09PM 35.9819 -104.4722 64° Northeast 481 554 37,000 540 Level Albuquerque Center
03:10PM 36.0422 -104.3225 63° Northeast 480 552 38,200 960 Climbing Albuquerque Center
03:11PM 36.1019 -104.1742 63° Northeast 478 550 39,000 360 Climbing Albuquerque Center
03:12PM 36.1728 -104.0028 63° Northeast 474 545 39,000  Level Albuquerque Center
03:13PM 36.2306 -103.8528 64° Northeast 475 547 39,000  Level Albuquerque Center
03:14PM 36.2783 -103.6972 69° East 477 549 39,000  Level Albuquerque Center
03:15PM 36.3225 -103.5350 71° East 486 559 39,000  Level Albuquerque Center
03:16PM 36.3553 -103.3700 76° East 487 560 39,000  Level Albuquerque Center
03:17PM 36.3853 -103.1997 78° East 495 570 39,000  Level Albuquerque Center
03:19PM 36.4072 -103.0267 81° East 500 575 39,000  Level Albuquerque Center
03:20PM 36.4269 -102.8497 82° East 505 581 39,000  Level Albuquerque Center
03:21PM 36.4478 -102.6772 81° East 506 582 39,000  Level Albuquerque Center
03:22PM 36.4894 -102.5097 73° East 507 583 39,000  Level Albuquerque Center
03:23PM 36.5536 -102.3583 62° Northeast 500 575 39,000  Level Albuquerque Center
03:24PM 36.6156 -102.2000 64° Northeast 484 557 39,000  Level Albuquerque Center
03:25PM 36.6808 -102.0361 64° Northeast 477 549 39,000  Level Albuquerque Center
03:26PM 36.7356 -101.8956 64° Northeast 473 544 39,000  Level Albuquerque Center
03:27PM 36.8019 -101.7300 63° Northeast 478 550 39,000  Level Albuquerque Center
03:28PM 36.8603 -101.5844 63° Northeast 485 558 39,000  Level Albuquerque Center
03:29PM 36.9267 -101.4131 64° Northeast 490 564 39,000  Level Albuquerque Center
03:30PM 37.0125 -101.1914 64° Northeast 493 567 39,000  Level Kansas City Center
03:31PM 37.0689 -101.0436 64° Northeast 494 568 39,000  Level Kansas City Center
03:32PM 37.1350 -100.8719 64° Northeast 494 568 39,000  Level Kansas City Center
03:33PM 37.1922 -100.7256 64° Northeast 493 567 39,000  Level Kansas City Center
03:34PM 37.2567 -100.5533 65° Northeast 493 567 39,000  Level Kansas City Center
03:35PM 37.3142 -100.4053 64° Northeast 496 571 39,000  Level Kansas City Center
03:36PM 37.3794 -100.2333 64° Northeast 493 567 39,000  Level Kansas City Center
03:38PM 37.4358 -100.0864 64° Northeast 491 565 39,000  Level Kansas City Center
03:39PM 37.5008 -99.9128 65° Northeast 492 566 39,000  Level Kansas City Center
03:40PM 37.5567 -99.7633 65° Northeast 494 568 39,000  Level Kansas City Center
03:41PM 37.6214 -99.5897 65° Northeast 493 567 39,000  Level Kansas City Center
03:42PM 37.6819 -99.4228 65° Northeast 496 571 39,000  Level Kansas City Center
03:43PM 37.7403 -99.2633 65° Northeast 499 574 39,000  Level Kansas City Center
03:44PM 37.7811 -99.0922 73° East 508 585 39,000  Level Kansas City Center
03:45PM 37.8108 -98.9164 78° East 510 587 39,000  Level Kansas City Center
03:46PM 37.8506 -98.7450 74° East 510 587 39,000  Level Kansas City Center
03:47PM 37.9119 -98.5886 64° Northeast 499 574 39,000  Level Kansas City Center
03:48PM 37.9708 -98.4289 65° Northeast 500 575 39,000  Level Kansas City Center
03:49PM 38.0408 -98.2372 65° Northeast 497 572 39,000  Level Kansas City Center
03:50PM 38.0989 -98.0725 66° East 502 578 39,000  Level Kansas City Center
03:51PM 38.1581 -97.9083 65° Northeast 502 578 39,000  Level Kansas City Center
03:52PM 38.2158 -97.7456 66° East 499 574 39,000  Level Kansas City Center
03:53PM 38.2733 -97.5831 66° East 500 575 39,000  Level Kansas City Center
03:54PM 38.3303 -97.4214 66° East 500 575 39,000  Level Kansas City Center
03:55PM 38.3872 -97.2578 66° East 502 578 39,000  Level Kansas City Center
03:56PM 38.4439 -97.0942 66° East 503 579 39,000  Level Kansas City Center
03:57PM 38.5119 -96.8983 66° East 503 579 39,000  Level Kansas City Center
03:58PM 38.5686 -96.7336 66° East 497 572 39,000  Level Kansas City Center
03:59PM 38.6214 -96.5781 66° East 499 574 39,000  Level Kansas City Center
04:00PM 38.6833 -96.3947 67° East 502 578 39,000  Level Kansas City Center
04:01PM 38.7369 -96.2392 66° East 500 575 39,000  Level Kansas City Center
04:02PM 38.7989 -96.0556 67° East 503 579 39,000  Level Kansas City Center
04:03PM 38.8506 -95.8975 67° East 503 579 39,000  Level Kansas City Center
04:04PM 38.9117 -95.7147 67° East 500 575 39,000  Level Kansas City Center
04:05PM 38.9647 -95.5567 67° East 504 580 39,000  Level Kansas City Center
04:06PM 39.0267 -95.3706 67° East 508 585 39,000  Level Kansas City Center
04:07PM 39.0781 -95.2067 68° East 498 573 39,000  Level Kansas City Center
04:09PM 39.1344 -95.0350 67° East 503 579 39,000  Level Kansas City Center
04:10PM 39.1853 -94.8792 67° East 498 573 39,000  Level Kansas City Center
04:11PM 39.2447 -94.6936 67° East 503 579 39,000  Level Kansas City Center
04:12PM 39.2969 -94.5342 67° East 506 582 39,000  Level Kansas City Center
04:13PM 39.3547 -94.3522 68° East 493 567 39,000  Level Kansas City Center
04:14PM 39.4053 -94.1931 68° East 499 574 39,000  Level Kansas City Center
04:15PM 39.4633 -94.0061 68° East 504 580 39,000  Level Kansas City Center
04:16PM 39.5133 -93.8469 68° East 501 577 39,000  Level Kansas City Center
04:17PM 39.5661 -93.6744 68° East 505 581 39,000  Level Kansas City Center
04:18PM 39.6178 -93.5081 68° East 504 580 39,000  Level Kansas City Center
04:19PM 39.6692 -93.3406 68° East 505 581 39,000  Level Kansas City Center
04:20PM 39.7292 -93.1408 69° East 501 577 39,000  Level Kansas City Center
04:21PM 39.7794 -92.9753 68° East 499 574 39,000  Level Kansas City Center
04:22PM 39.8289 -92.8114 69° East 496 571 39,000 -60 Level Kansas City Center
04:23PM 39.8764 -92.6467 69° East 494 568 38,900 -600 Descending Kansas City Center
04:24PM 39.9356 -92.4497 69° East 494 568 37,800 -1,080 Descending Kansas City Center
04:25PM 39.9842 -92.2844 69° East 497 572 36,800 -960 Descending Kansas City Center
04:26PM 40.0333 -92.1178 69° East 500 575 35,900 -900 Descending Kansas City Center
04:27PM 40.0794 -91.9539 70° East 494 568 35,000 -600 Descending Kansas City Center
04:28PM 40.1367 -91.7561 69° East 492 566 34,700 -540 Descending Kansas City Center
04:29PM 40.1836 -91.5897 70° East 493 567 34,000 -1,020 Descending Kansas City Center
04:30PM 40.2322 -91.4217 69° East 496 571 32,700 -1,440 Descending Kansas City Center
04:31PM 40.2794 -91.2506 70° East 501 577 31,000 -840 Descending Kansas City Center
04:32PM 40.3289 -91.0786 69° East 501 577 31,000  Level Kansas City Center
04:33PM 40.3769 -90.9072 70° East 502 578 31,000  Level Kansas City Center
04:34PM 40.4331 -90.7022 70° East 500 575 31,000 -180 Level Kansas City Center
04:35PM 40.4814 -90.5289 70° East 503 579 30,700 -600 Descending Kansas City Center
04:36PM 40.5289 -90.3556 70° East 505 581 29,800 -900 Descending Kansas City Center
04:37PM 40.5731 -90.1911 70° East 506 582 28,900 -1,080 Descending Kansas City Center
04:39PM 40.6289 -89.9833 70° East 507 583 27,600 -1,140 Descending Kansas City Center
04:40PM 40.6728 -89.8158 71° East 502 578 26,600 -1,140 Descending Kansas City Center
04:41PM 40.7364 -89.6511 63° Northeast 504 580 25,300 -2,520 Descending Kansas City Center
04:42PM 40.8053 -89.5028 58° Northeast 490 564 21,500 -3,420 Descending Kansas City Center
04:43PM 40.8989 -89.2925 59° Northeast 476 548 17,400 -1,920 Descending Chicago Center
04:44PM 40.9553 -89.1522 62° Northeast 437 503 17,000 -300 Descending Chicago Center
04:45PM 41.0108 -89.0158 62° Northeast 423 487 16,800 -480 Descending Chicago Center
04:46PM 41.0606 -88.9011 60° Northeast 366 421 16,100 -1,080 Descending Chicago Center
04:47PM 41.1056 -88.7928 61° Northeast 340 391 14,600 -1,920 Descending Chicago Center
04:48PM 41.1603 -88.6633 61° Northeast 334 384 12,200 -2,160 Descending Chicago Center
04:49PM 41.2064 -88.5547 61° Northeast 339 390 10,200 -1,680 Descending Chicago Center
04:50PM 41.2661 -88.4822 42° Northeast 324 373 8,800 -1,680 Descending Chicago Center
04:51PM 41.3419 -88.4386 23° Northeast 310 357 6,800 -1,380 Descending Chicago Center
04:52PM 41.4161 -88.3950 24° Northeast 299 344 6,000 -420 Descending Chicago Center
04:53PM 41.4525 -88.3075 61° Northeast 294 338 6,000 -240 Level Chicago Center
04:54PM 41.4856 -88.1903 69° East 286 329 5,500 -540 Descending Chicago Center
04:55PM 41.5117 -88.0914 71° East 284 327 5,000 -300 Descending Chicago Center
04:56PM 41.5397 -87.9975 68° East 279 321 5,000  Level Chicago Center
04:57PM 41.5586 -87.8992 76° East 275 316 5,000 -300 Level Chicago Center
05:00PM 41.5833 -87.6667 82° East 235 270 4,100 -540 Descending Chicago TRACON
05:01PM 41.6167 -87.6000 56° Northeast 222 255 3,400 -540 Descending Chicago TRACON
05:02PM 41.6500 -87.5833 20° North 191 220 3,100 -480 Descending Chicago TRACON
05:04PM 41.7333 -87.6667 323° Northwest 153 176 2,100 -600 Descending Chicago TRACON
05:05PM 41.7500 -87.7167 294° West 132 152 1,400 -720 Descending Chicago TRACON